Time;durP1;ratioP1;P1;durP2;ratioP2;P2;SDS_P1;SDS_P2;PMS_P1;PMS_P2;Temp;Humidity;BMP_temperature;BMP_pressure;BME280_temperature;BME280_humidity;BME280_pressure;Samples;Min_cycle;Max_cycle;Signal;HPM_P1;HPM_P2
2024/02/13 00:02:20;;;;;;;33.25;13.77;;;;;;;9.10;100.00;135255.06;5054427;28;20029;-71
2024/02/13 00:04:46;;;;;;;30.30;14.43;;;;;;;9.02;100.00;135216.41;5055878;28;20387;-70
2024/02/13 00:07:11;;;;;;;34.03;13.90;;;;;;;8.84;100.00;135358.75;5059819;28;20029;-71
2024/02/13 00:09:38;;;;;;;30.40;14.57;;;;;;;8.44;100.00;135280.41;5060188;28;20031;-71
2024/02/13 00:12:03;;;;;;;32.03;13.65;;;;;;;8.99;100.00;135513.25;5058611;28;20510;-70
2024/02/13 00:14:29;;;;;;;37.35;17.50;;;;;;;9.19;100.00;135575.22;5057288;28;20037;-69
2024/02/13 00:16:56;;;;;;;36.70;18.77;;;;;;;8.62;100.00;135443.00;5059488;28;20055;-69
2024/02/13 00:19:24;;;;;;;36.70;14.85;;;;;;;9.26;100.00;135556.69;5061574;28;20048;-70
2024/02/13 00:21:49;;;;;;;29.65;13.88;;;;;;;9.04;100.00;135369.50;5057368;28;20437;-69
2024/02/13 00:24:16;;;;;;;30.15;13.70;;;;;;;8.88;100.00;135252.63;5056539;28;20040;-70
2024/02/13 00:26:43;;;;;;;33.50;15.48;;;;;;;9.27;100.00;135274.59;5058313;28;20056;-69
2024/02/13 00:29:08;;;;;;;30.17;14.43;;;;;;;9.13;100.00;135071.19;5056801;28;20029;-70
2024/02/13 00:31:34;;;;;;;32.55;12.63;;;;;;;8.92;100.00;134853.19;5060106;28;20033;-69
2024/02/13 00:34:00;;;;;;;32.10;12.90;;;;;;;9.15;100.00;134930.84;5058356;28;20556;-69
2024/02/13 00:36:25;;;;;;;30.20;13.00;;;;;;;8.71;100.00;134663.44;5061908;28;20064;-69
2024/02/13 00:38:52;;;;;;;29.58;12.52;;;;;;;8.65;100.00;134607.84;5062242;28;20036;-68
2024/02/13 00:41:18;;;;;;;33.13;13.38;;;;;;;9.20;100.00;134706.53;5061819;28;20021;-69
2024/02/13 00:43:44;;;;;;;32.30;13.65;;;;;;;9.27;100.00;134522.53;5057893;28;20035;-69
2024/02/13 00:46:10;;;;;;;32.15;13.93;;;;;;;9.05;100.00;134556.28;5066403;28;20032;-70
2024/02/13 00:48:35;;;;;;;31.40;14.13;;;;;;;9.05;100.00;134341.19;5061927;28;20037;-69
2024/02/13 00:51:01;;;;;;;32.05;14.02;;;;;;;9.04;100.00;134509.03;5062623;28;20032;-69
2024/02/13 00:53:26;;;;;;;35.25;14.50;;;;;;;8.52;100.00;134420.97;5055083;28;20445;-69
2024/02/13 00:55:52;;;;;;;31.98;14.23;;;;;;;9.18;100.00;134460.13;5060443;28;20411;-70
2024/02/13 00:58:18;;;;;;;26.85;13.90;;;;;;;9.21;100.00;134567.88;5064418;28;20049;-69
2024/02/13 01:00:43;;;;;;;26.90;13.73;;;;;;;8.81;100.00;134441.78;5061364;28;20020;-69
2024/02/13 01:03:12;;;;;;;28.73;12.70;;;;;;;8.91;100.00;134525.81;5057508;28;20059;-70
2024/02/13 01:05:40;;;;;;;35.10;13.40;;;;;;;8.60;100.00;134362.25;5057735;28;20037;-71
2024/02/13 01:08:07;;;;;;;28.25;13.65;;;;;;;8.10;100.00;134200.91;5061789;28;20037;-70
2024/02/13 01:10:32;;;;;;;25.00;13.65;;;;;;;8.36;100.00;134243.09;5061918;28;20040;-69
2024/02/13 01:12:59;;;;;;;31.45;13.65;;;;;;;8.68;100.00;134219.09;5063308;28;20383;-70
2024/02/13 01:15:26;;;;;;;27.63;13.52;;;;;;;9.17;100.00;134254.09;5057927;28;20055;-70
2024/02/13 01:17:54;;;;;;;30.30;13.90;;;;;;;8.64;100.00;134129.63;5061292;28;20039;-70
2024/02/13 01:20:20;;;;;;;26.15;13.65;;;;;;;9.20;100.00;134147.06;5061367;28;20029;-70
2024/02/13 01:22:46;;;;;;;34.13;15.02;;;;;;;9.17;100.00;133954.47;5061505;28;20035;-70
2024/02/13 01:25:13;;;;;;;33.55;15.15;;;;;;;9.07;100.00;133998.56;5057407;28;20423;-70
2024/02/13 01:27:40;;;;;;;32.40;15.25;;;;;;;8.99;100.00;133947.34;5056437;28;20033;-70
2024/02/13 01:30:09;;;;;;;36.67;15.95;;;;;;;9.16;100.00;133961.34;5056926;28;20028;-71
2024/02/13 01:32:40;;;;;;;30.67;15.73;;;;;;;8.72;100.00;133811.00;5061669;28;20033;-69
2024/02/13 01:35:08;;;;;;;31.55;15.65;;;;;;;9.03;100.00;133917.88;5055043;28;20082;-73
2024/02/13 01:37:34;;;;;;;34.53;15.02;;;;;;;8.27;100.00;133713.97;5059590;28;20017;-70
2024/02/13 01:39:59;;;;;;;36.90;17.13;;;;;;;9.07;100.00;133759.38;5057000;28;20044;-70
2024/02/13 01:42:26;;;;;;;32.78;17.98;;;;;;;8.17;100.00;133582.69;5063759;28;20024;-69
2024/02/13 01:44:53;;;;;;;26.23;17.15;;;;;;;8.50;100.00;133620.94;5063039;28;20025;-69
2024/02/13 01:47:21;;;;;;;35.92;18.63;;;;;;;8.53;100.00;133641.91;5059583;28;20033;-69
2024/02/13 01:49:47;;;;;;;34.97;19.17;;;;;;;9.12;100.00;133693.75;5057497;28;20491;-70
2024/02/13 01:52:14;;;;;;;31.00;18.95;;;;;;;8.61;100.00;133625.16;5054624;28;20048;-71
2024/02/13 01:54:40;;;;;;;41.63;21.98;;;;;;;8.68;100.00;133574.31;5058028;28;20064;-70
2024/02/13 01:57:06;;;;;;;31.75;19.23;;;;;;;7.92;100.00;133414.22;5067235;28;20032;-70
2024/02/13 01:59:38;;;;;;;42.03;19.40;;;;;;;8.21;100.00;133472.94;5058301;28;20056;-69
2024/02/13 02:02:08;;;;;;;30.73;18.95;;;;;;;8.58;100.00;133649.09;5053033;28;20461;-69
2024/02/13 02:04:37;;;;;;;34.95;17.27;;;;;;;8.11;100.00;133527.19;5060588;28;20025;-71
2024/02/13 02:07:03;;;;;;;37.53;17.30;;;;;;;7.99;100.00;133511.66;5056201;28;20090;-70
2024/02/13 02:09:30;;;;;;;35.83;17.08;;;;;;;8.85;100.00;133671.63;5056733;28;20025;-68
2024/02/13 02:11:57;;;;;;;41.40;16.55;;;;;;;8.72;100.00;133626.78;5059626;28;20106;-70
2024/02/13 02:14:23;;;;;;;32.15;16.00;;;;;;;8.78;100.00;133621.19;5059374;28;20036;-70
2024/02/13 02:16:49;;;;;;;30.00;15.27;;;;;;;8.61;100.00;133511.47;5061546;28;20032;-69
2024/02/13 02:19:15;;;;;;;30.48;15.32;;;;;;;8.13;100.00;133447.34;5052138;28;20486;-70
2024/02/13 02:21:41;;;;;;;29.10;16.00;;;;;;;8.23;100.00;133386.50;5060078;28;20028;-70
2024/02/13 02:24:07;;;;;;;34.50;16.77;;;;;;;8.14;100.00;133333.13;5058817;28;20033;-72
2024/02/13 02:26:32;;;;;;;29.77;15.90;;;;;;;8.86;100.00;133462.56;5054019;28;20067;-70
2024/02/13 02:28:58;;;;;;;31.48;16.75;;;;;;;8.68;100.00;133405.47;5061957;28;20529;-70
2024/02/13 02:31:23;;;;;;;28.42;15.32;;;;;;;8.31;100.00;133271.53;5057753;28;20040;-71
2024/02/13 02:33:48;;;;;;;30.45;15.88;;;;;;;8.02;100.00;133220.84;5057206;28;20036;-69
2024/02/13 02:36:14;;;;;;;28.88;17.15;;;;;;;8.08;100.00;133202.13;5060122;28;20033;-69
2024/02/13 02:38:39;;;;;;;28.48;17.42;;;;;;;8.91;100.00;133324.22;5054938;28;20477;-69
2024/02/13 02:41:06;;;;;;;31.88;17.00;;;;;;;8.77;100.00;133266.97;5056739;28;20075;-71
2024/02/13 02:43:33;;;;;;;26.25;16.25;;;;;;;8.27;100.00;133151.53;5056139;28;20087;-69
2024/02/13 02:45:58;;;;;;;29.15;16.58;;;;;;;8.85;100.00;133235.16;5056185;28;20048;-69
2024/02/13 02:48:24;;;;;;;30.00;16.92;;;;;;;8.20;100.00;133025.94;5056209;28;20103;-70
2024/02/13 02:50:49;;;;;;;32.78;17.63;;;;;;;8.77;100.00;133131.72;5060522;28;20492;-71
2024/02/13 02:53:15;;;;;;;35.05;19.10;;;;;;;8.57;100.00;133031.88;5056104;28;20040;-73
2024/02/13 02:55:40;;;;;;;33.17;20.40;;;;;;;8.05;100.00;132937.34;5056835;28;20029;-71
2024/02/13 02:58:08;;;;;;;30.75;18.63;;;;;;;8.22;100.00;132995.72;5058865;28;20098;-70
2024/02/13 03:00:35;;;;;;;32.80;20.15;;;;;;;8.60;100.00;133128.09;5060737;28;20478;-69
2024/02/13 03:03:02;;;;;;;29.23;16.52;;;;;;;7.99;100.00;132989.25;5053824;28;20086;-69
2024/02/13 03:05:28;;;;;;;25.27;14.05;;;;;;;8.19;100.00;133051.81;5053564;28;20041;-69
2024/02/13 03:07:54;;;;;;;22.05;12.05;;;;;;;8.17;100.00;132969.25;5055853;28;20453;-69
2024/02/13 03:10:20;;;;;;;17.27;12.02;;;;;;;7.56;100.00;132882.75;5057292;28;20037;-69
2024/02/13 03:12:46;;;;;;;16.20;10.82;;;;;;;7.99;100.00;132989.25;5058900;28;20025;-69
2024/02/13 03:15:12;;;;;;;16.40;9.95;;;;;;;7.34;100.00;132825.97;5057626;28;20505;-70
2024/02/13 03:17:38;;;;;;;17.23;11.43;;;;;;;7.60;100.00;132881.47;5054829;28;20044;-69
2024/02/13 03:20:04;;;;;;;18.92;12.50;;;;;;;7.35;100.00;132799.03;5057220;28;20028;-70
2024/02/13 03:22:35;;;;;;;16.88;12.77;;;;;;;8.05;100.00;132899.00;5055294;28;20029;-70
2024/02/13 03:25:01;;;;;;;16.27;10.57;;;;;;;7.17;100.00;132789.50;5054040;28;20054;-69
2024/02/13 03:27:26;;;;;;;16.60;11.38;;;;;;;7.90;100.00;132892.19;5051673;28;20033;-70
2024/02/13 03:29:52;;;;;;;19.40;12.40;;;;;;;7.77;100.00;132809.56;5052611;28;20052;-70
2024/02/13 03:32:17;;;;;;;21.10;13.18;;;;;;;7.89;100.00;132920.63;5058483;28;20111;-69
2024/02/13 03:34:44;;;;;;;22.55;13.63;;;;;;;7.11;100.00;132736.38;5054727;28;20052;-69
2024/02/13 03:37:09;;;;;;;24.23;15.13;;;;;;;7.84;100.00;132748.53;5057625;28;20032;-69
2024/02/13 03:39:35;;;;;;;24.23;15.07;;;;;;;7.91;100.00;132839.66;5059405;28;20087;-70
2024/02/13 03:42:02;;;;;;;21.30;14.27;;;;;;;7.84;100.00;132818.97;5059606;28;20040;-72
2024/02/13 03:44:28;;;;;;;24.25;16.38;;;;;;;7.72;100.00;132825.41;5063473;28;20867;-69
2024/02/13 03:46:54;;;;;;;25.52;15.60;;;;;;;7.89;100.00;132805.69;5062856;28;20083;-69
2024/02/13 03:49:19;;;;;;;25.00;15.75;;;;;;;7.86;100.00;132846.41;5063672;28;20032;-69
2024/02/13 03:51:45;;;;;;;28.67;16.15;;;;;;;7.99;100.00;132865.19;5062195;28;20029;-69
2024/02/13 03:54:10;;;;;;;22.55;15.73;;;;;;;7.45;100.00;132739.63;5059785;28;20036;-69
2024/02/13 03:56:37;;;;;;;26.10;16.90;;;;;;;7.47;100.00;132772.16;5063254;28;20494;-69
2024/02/13 03:59:08;;;;;;;32.70;17.25;;;;;;;7.94;100.00;132919.34;5055995;28;20052;-70
2024/02/13 04:01:34;;;;;;;26.95;16.80;;;;;;;8.16;100.00;132927.56;5055008;28;20053;-71
2024/02/13 04:03:59;;;;;;;26.88;16.90;;;;;;;7.36;100.00;132773.16;5060656;28;20067;-69
2024/02/13 04:06:25;;;;;;;32.65;17.52;;;;;;;8.25;100.00;132851.66;5060547;28;20487;-70
2024/02/13 04:08:50;;;;;;;33.53;16.65;;;;;;;7.90;100.00;132914.09;5058749;28;20040;-70
2024/02/13 04:11:16;;;;;;;32.78;17.75;;;;;;;7.49;100.00;132894.06;5061820;28;20029;-69
2024/02/13 04:13:42;;;;;;;36.97;18.25;;;;;;;7.40;100.00;132887.88;5061848;28;20107;-70
2024/02/13 04:16:10;;;;;;;37.55;19.42;;;;;;;8.03;100.00;132930.31;5049672;28;20124;-71
2024/02/13 04:18:36;;;;;;;67.45;38.35;;;;;;;7.62;100.00;132934.44;5051688;28;20127;-69
2024/02/13 04:21:01;;;;;;;43.38;26.27;;;;;;;7.82;100.00;132995.84;5052308;28;20551;-71
2024/02/13 04:23:27;;;;;;;29.35;16.98;;;;;;;8.34;100.00;133072.59;5055049;28;20037;-70
2024/02/13 04:25:53;;;;;;;33.78;16.77;;;;;;;8.34;100.00;133058.34;5053247;28;20112;-70
2024/02/13 04:28:21;;;;;;;29.63;18.10;;;;;;;8.15;100.00;133054.22;5058440;28;20037;-70
2024/02/13 04:30:47;;;;;;;31.08;19.70;;;;;;;8.20;100.00;133016.81;5060140;28;20028;-73
2024/02/13 04:33:13;;;;;;;25.73;17.63;;;;;;;7.89;100.00;132947.59;5062674;28;20029;-69
2024/02/13 04:35:38;;;;;;;25.08;16.20;;;;;;;8.23;100.00;133055.63;5055428;28;20037;-69
2024/02/13 04:38:05;;;;;;;30.33;20.38;;;;;;;8.08;100.00;133037.47;5054717;28;20025;-68
2024/02/13 04:40:33;;;;;;;33.58;22.20;;;;;;;8.19;100.00;133096.38;5055662;28;20406;-69
2024/02/13 04:43:00;;;;;;;28.85;20.50;;;;;;;8.28;100.00;133118.00;5055646;28;20021;-68
2024/02/13 04:45:26;;;;;;;23.17;16.05;;;;;;;8.12;100.00;133106.28;5052707;28;20084;-68
2024/02/13 04:47:52;;;;;;;22.08;14.82;;;;;;;8.05;100.00;133118.75;5056617;28;20040;-69
2024/02/13 04:50:19;;;;;;;22.33;14.93;;;;;;;7.51;100.00;133032.41;5057218;28;20029;-69
2024/02/13 04:52:44;;;;;;;22.10;15.10;;;;;;;8.21;100.00;133155.97;5052759;28;20021;-68
2024/02/13 04:55:10;;;;;;;20.65;13.98;;;;;;;7.65;100.00;133067.66;5055145;28;20418;-70
2024/02/13 04:57:36;;;;;;;21.50;15.63;;;;;;;7.64;100.00;133083.34;5053926;28;20027;-70
2024/02/13 05:00:13;;;;;;;21.90;14.63;;;;;;;7.25;100.00;133020.25;5055673;28;21713;-68
2024/02/13 05:02:39;;;;;;;25.35;16.65;;;;;;;7.56;100.00;133332.13;5052732;28;20025;-69
2024/02/13 05:07:50;;;;;;;36.55;21.65;;;;;;;6.79;100.00;133489.81;5054352;28;20090;-70
2024/02/13 05:10:16;;;;;;;34.00;20.65;;;;;;;6.68;100.00;133518.72;5053981;28;20035;-69
2024/02/13 05:12:43;;;;;;;38.25;21.95;;;;;;;7.61;100.00;134031.75;5050781;28;20422;-69
2024/02/13 05:15:10;;;;;;;39.40;22.30;;;;;;;7.88;100.00;134432.47;5051756;28;20032;-70
2024/02/13 05:17:36;;;;;;;32.75;19.38;;;;;;;7.90;100.00;134709.00;5048786;28;20037;-67
2024/02/13 05:20:02;;;;;;;87.35;35.25;;;;;;;7.55;100.00;134781.97;5053809;28;20040;-67
2024/02/13 05:22:28;;;;;;;37.40;21.05;;;;;;;8.13;100.00;135130.72;5049626;28;20059;-66
2024/02/13 05:24:53;;;;;;;34.35;21.02;;;;;;;7.87;100.00;135123.97;5056502;28;20484;-67
2024/02/13 05:27:19;;;;;;;31.38;18.05;;;;;;;7.79;100.00;135250.34;5051982;28;20032;-68
2024/02/13 05:29:44;;;;;;;39.60;22.30;;;;;;;7.07;100.00;135268.06;5054059;28;20033;-69
2024/02/13 05:32:10;;;;;;;32.22;18.73;;;;;;;6.99;100.00;135333.81;5053182;28;20028;-68
2024/02/13 05:34:36;;;;;;;34.60;19.80;;;;;;;7.85;100.00;135529.81;5054254;28;20422;-68
2024/02/13 05:37:05;;;;;;;35.50;20.88;;;;;;;7.88;100.00;135599.16;5052414;28;20040;-68
2024/02/13 05:39:31;;;;;;;43.42;24.52;;;;;;;7.54;100.00;135675.03;5052741;28;20039;-68
2024/02/13 05:41:57;;;;;;;51.85;26.88;;;;;;;7.40;100.00;135795.25;5052420;28;20021;-68
2024/02/13 05:44:23;;;;;;;39.92;21.13;;;;;;;8.02;100.00;136059.56;5052260;28;20127;-67
2024/02/13 05:46:49;;;;;;;38.85;20.08;;;;;;;7.13;100.00;135969.69;5052604;28;20066;-68
2024/02/13 05:49:15;;;;;;;43.50;21.65;;;;;;;7.85;100.00;136287.72;5059923;28;20040;-73
2024/02/13 05:51:42;;;;;;;52.55;18.98;;;;;;;7.88;100.00;136343.16;5055214;28;20029;-68
2024/02/13 05:54:09;;;;;;;33.70;17.85;;;;;;;6.98;100.00;136106.47;5062854;28;20111;-68
2024/02/13 05:56:35;;;;;;;38.65;19.67;;;;;;;7.93;100.00;136361.16;5060691;28;20039;-68
2024/02/13 05:59:03;;;;;;;32.75;18.65;;;;;;;8.10;100.00;136597.06;5058996;28;20033;-68
2024/02/13 06:01:29;;;;;;;34.83;18.30;;;;;;;8.15;100.00;136680.19;5057880;28;20041;-68
2024/02/13 06:03:57;;;;;;;29.05;16.85;;;;;;;8.26;100.00;136786.25;5061802;28;20024;-69
2024/02/13 06:06:25;;;;;;;28.20;16.38;;;;;;;8.19;100.00;136896.63;5062032;28;20032;-69
2024/02/13 06:08:53;;;;;;;34.75;17.30;;;;;;;8.31;100.00;136923.09;5058519;28;20029;-69
2024/02/13 06:11:18;;;;;;;34.25;17.42;;;;;;;8.23;100.00;136759.97;5055131;28;20044;-66
2024/02/13 06:13:45;;;;;;;25.65;16.58;;;;;;;8.21;100.00;136915.41;5060468;28;20036;-66
2024/02/13 06:16:12;;;;;;;32.78;17.20;;;;;;;7.24;100.00;136729.34;5058906;28;20033;-68
2024/02/13 06:18:37;;;;;;;33.25;16.77;;;;;;;7.60;100.00;136904.13;5065944;28;20040;-67
2024/02/13 06:21:03;;;;;;;34.33;19.25;;;;;;;7.65;100.00;136982.09;5057150;28;20029;-67
2024/02/13 06:23:30;;;;;;;39.70;19.55;;;;;;;7.55;100.00;137044.56;5060562;28;20461;-66
2024/02/13 06:25:55;;;;;;;35.13;18.52;;;;;;;8.26;100.00;137377.41;5054620;28;20037;-67
2024/02/13 06:28:21;;;;;;;40.28;17.98;;;;;;;8.33;100.00;137460.09;5061493;28;20094;-68
2024/02/13 06:30:47;;;;;;;31.48;20.27;;;;;;;7.83;100.00;137350.88;5059304;28;20058;-66
2024/02/13 06:33:13;;;;;;;31.23;19.85;;;;;;;8.58;100.00;137640.72;5061393;28;20122;-67
2024/02/13 06:35:39;;;;;;;31.05;19.05;;;;;;;8.38;100.00;137669.91;5058922;28;20459;-67
2024/02/13 06:38:06;;;;;;;37.15;18.95;;;;;;;8.25;100.00;137675.69;5055685;28;20028;-67
2024/02/13 06:40:32;;;;;;;29.38;19.48;;;;;;;8.75;100.00;137749.22;5058799;28;20103;-66
2024/02/13 06:42:57;;;;;;;47.33;25.55;;;;;;;7.63;100.00;137488.81;5056644;28;20135;-67
2024/02/13 06:45:25;;;;;;;34.80;22.65;;;;;;;9.02;100.00;137829.59;5065143;28;20441;-68
2024/02/13 06:47:51;;;;;;;31.38;20.50;;;;;;;8.10;100.00;137610.22;5057465;28;20078;-67
2024/02/13 06:50:16;;;;;;;40.20;21.38;;;;;;;8.97;100.00;137569.47;5058484;28;20112;-68
2024/02/13 06:52:42;;;;;;;37.63;21.27;;;;;;;9.03;100.00;137656.50;5058075;28;20565;-69
2024/02/13 06:55:08;;;;;;;50.95;26.27;;;;;;;8.69;100.00;137621.19;5057430;28;20479;-68
2024/02/13 06:57:35;;;;;;;52.60;32.60;;;;;;;9.18;100.00;137694.88;5056822;28;20078;-67
2024/02/13 07:00:11;;;;;;;47.28;29.40;;;;;;;9.09;100.00;137725.31;5056290;28;20032;-67
2024/02/13 07:02:37;;;;;;;40.08;22.25;;;;;;;9.07;100.00;137864.22;5061884;28;20040;-66
2024/02/13 07:05:04;;;;;;;40.17;23.45;;;;;;;9.27;100.00;137796.59;5064365;28;20033;-67
2024/02/13 07:07:30;;;;;;;37.80;24.00;;;;;;;8.55;100.00;137481.34;5062711;28;20043;-66
2024/02/13 07:09:56;;;;;;;35.67;22.77;;;;;;;9.27;100.00;137700.28;5059148;28;20028;-67
2024/02/13 07:12:21;;;;;;;34.53;20.90;;;;;;;9.35;100.00;137750.94;5058720;28;20033;-67
2024/02/13 07:14:47;;;;;;;35.35;21.20;;;;;;;8.78;100.00;137564.00;5052852;28;20403;-67
2024/02/13 07:17:13;;;;;;;36.35;20.23;;;;;;;9.39;100.00;137631.97;5061811;28;20040;-69
2024/02/13 07:19:41;;;;;;;34.03;20.70;;;;;;;8.33;100.00;137408.88;5059222;28;20130;-66
2024/02/13 07:22:10;;;;;;;31.98;20.13;;;;;;;9.66;100.00;137486.56;5059144;28;20170;-67
2024/02/13 07:24:37;;;;;;;35.15;22.20;;;;;;;9.55;100.00;137387.97;5060531;28;20037;-68
2024/02/13 07:27:05;;;;;;;36.03;23.60;;;;;;;9.94;100.00;137285.66;5059650;28;20115;-66
2024/02/13 07:29:31;;;;;;;40.25;25.75;;;;;;;10.02;100.00;137176.88;5058798;28;20077;-66
2024/02/13 07:31:57;;;;;;;33.08;21.02;;;;;;;10.00;100.00;137018.28;5059013;28;20029;-67
2024/02/13 07:34:23;;;;;;;31.33;20.38;;;;;;;10.09;100.00;136972.25;5060864;28;20041;-66
2024/02/13 07:36:48;;;;;;;29.40;19.75;;;;;;;9.45;100.00;136649.50;5059119;28;20466;-68
2024/02/13 07:39:14;;;;;;;33.97;18.58;;;;;;;9.94;100.00;136682.63;5059332;28;20525;-68
2024/02/13 07:41:41;;;;;;;30.73;18.30;;;;;;;9.50;100.00;136519.97;5060217;28;20029;-69
2024/02/13 07:44:07;;;;;;;33.05;18.17;;;;;;;9.57;100.00;136550.22;5055790;28;20029;-67
2024/02/13 07:46:32;;;;;;;36.00;21.10;;;;;;;10.23;100.00;136602.81;5063100;28;20043;-67
2024/02/13 07:48:58;;;;;;;34.15;21.42;;;;;;;9.60;100.00;136358.25;5060821;28;20094;-67
2024/02/13 07:51:23;;;;;;;37.40;23.45;;;;;;;10.37;100.00;136515.38;5060107;28;20047;-67
2024/02/13 07:53:49;;;;;;;34.47;20.67;;;;;;;9.81;100.00;136130.66;5060129;28;20129;-66
2024/02/13 07:56:14;;;;;;;37.17;21.98;;;;;;;10.45;100.00;136201.28;5061809;28;20043;-66
2024/02/13 07:58:40;;;;;;;42.42;22.38;;;;;;;10.69;100.00;136188.16;5060075;28;20048;-67
2024/02/13 08:01:09;;;;;;;32.65;19.65;;;;;;;10.71;100.00;136084.84;5062172;28;20563;-68
2024/02/13 08:03:36;;;;;;;46.20;26.35;;;;;;;10.58;100.00;136001.28;5063543;28;20110;-67
2024/02/13 08:06:02;;;;;;;44.28;26.58;;;;;;;10.93;100.00;135911.47;5059328;28;20458;-68
2024/02/13 08:08:28;;;;;;;29.38;14.77;;;;;;;10.51;100.00;135787.56;5058243;28;20510;-70
2024/02/13 08:10:54;;;;;;;40.60;22.10;;;;;;;10.29;100.00;135407.56;5064231;28;20032;-68
2024/02/13 08:13:20;;;;;;;50.13;28.88;;;;;;;10.72;100.00;135375.63;5061043;28;20104;-67
2024/02/13 08:15:47;;;;;;;41.85;23.20;;;;;;;10.22;100.00;135135.09;5064477;28;20614;-68
2024/02/13 08:18:14;;;;;;;39.78;19.95;;;;;;;10.68;100.00;135189.34;5061010;28;20028;-67
2024/02/13 08:20:40;;;;;;;49.88;28.27;;;;;;;10.79;100.00;135107.56;5060171;28;20029;-68
2024/02/13 08:23:06;;;;;;;38.22;22.23;;;;;;;11.11;100.00;134996.44;5058499;28;20556;-68
2024/02/13 08:25:31;;;;;;;38.47;20.00;;;;;;;11.03;100.00;134902.38;5060190;28;20060;-67
2024/02/13 08:27:58;;;;;;;38.17;19.75;;;;;;;11.13;100.00;134953.25;5061586;28;20507;-67
2024/02/13 08:30:24;;;;;;;38.00;21.40;;;;;;;10.51;100.00;134781.19;5055654;28;20403;-67
2024/02/13 08:32:49;;;;;;;34.78;18.95;;;;;;;10.48;100.00;134835.72;5059197;28;20035;-67
2024/02/13 08:35:18;;;;;;;42.08;21.65;;;;;;;10.55;100.00;134774.84;5057507;28;20037;-68
2024/02/13 08:37:43;;;;;;;33.85;20.52;;;;;;;10.84;100.00;134809.50;5062010;28;20551;-68
2024/02/13 08:40:12;;;;;;;45.25;27.83;;;;;;;10.54;100.00;134734.09;5063479;28;20031;-68
2024/02/13 08:42:38;;;;;;;41.15;22.88;;;;;;;10.25;100.00;134700.50;5057547;28;20507;-67
2024/02/13 08:45:04;;;;;;;51.20;26.88;;;;;;;10.24;100.00;134613.63;5061360;28;20039;-67
2024/02/13 08:47:30;;;;;;;48.60;28.63;;;;;;;10.94;100.00;134727.91;5063620;28;20082;-67
2024/02/13 08:49:56;;;;;;;42.05;25.88;;;;;;;11.07;100.00;134733.03;5060802;28;20125;-67
2024/02/13 08:52:21;;;;;;;44.00;23.05;;;;;;;10.61;100.00;134580.44;5060476;28;20040;-67
2024/02/13 08:54:47;;;;;;;39.10;21.50;;;;;;;10.48;100.00;134454.69;5056942;28;20033;-68
2024/02/13 08:57:14;;;;;;;36.95;19.63;;;;;;;10.58;100.00;134432.50;5058028;28;20117;-67
2024/02/13 08:59:41;;;;;;;27.20;14.38;;;;;;;11.23;100.00;134721.41;5065130;28;20049;-67
2024/02/13 09:02:08;;;;;;;35.25;16.35;;;;;;;10.66;100.00;134512.09;5053758;28;20025;-67
2024/02/13 09:04:35;;;;;;;27.10;14.50;;;;;;;11.44;100.00;134717.72;5058927;28;20029;-68
2024/02/13 09:07:01;;;;;;;24.65;14.25;;;;;;;11.82;100.00;134870.38;5066895;28;20384;-67
2024/02/13 09:09:27;;;;;;;32.83;19.15;;;;;;;11.74;100.00;134802.00;5060228;28;20027;-67
2024/02/13 09:11:52;;;;;;;32.28;16.15;;;;;;;11.62;100.00;134787.75;5057383;28;20054;-67
2024/02/13 09:14:18;;;;;;;25.38;13.25;;;;;;;12.20;100.00;135001.06;5065017;28;20119;-67
2024/02/13 09:16:44;;;;;;;25.40;14.32;;;;;;;12.63;100.00;135106.28;5058117;28;20041;-69
2024/02/13 09:19:09;;;;;;;27.73;13.13;;;;;;;12.15;100.00;135103.06;5054406;28;20048;-68
2024/02/13 09:21:35;;;;;;;32.90;15.15;;;;;;;12.24;100.00;135081.03;5059439;28;20128;-68
2024/02/13 09:24:01;;;;;;;29.45;14.80;;;;;;;12.22;100.00;135150.09;5056561;28;20032;-69
2024/02/13 09:26:26;;;;;;;25.05;11.82;;;;;;;12.07;100.00;135290.88;5059616;28;20035;-67
2024/02/13 09:28:52;;;;;;;20.23;11.70;;;;;;;11.92;100.00;135367.53;5054437;28;20037;-68
2024/02/13 09:31:18;;;;;;;18.98;11.70;;;;;;;12.36;100.00;135395.50;5056886;28;20032;-68
2024/02/13 09:33:45;;;;;;;24.10;12.57;;;;;;;12.52;100.00;135436.91;5058071;28;20044;-67
2024/02/13 09:36:20;;;;;;;27.58;13.05;;;;;;;12.08;100.00;135522.19;5057760;28;20395;-68
2024/02/13 09:38:46;;;;;;;25.75;13.80;;;;;;;12.16;100.00;135626.78;5060381;28;20062;-67
2024/02/13 09:41:12;;;;;;;25.08;13.55;;;;;;;11.97;100.00;135553.88;5067441;28;20033;-72
2024/02/13 09:43:38;;;;;;;29.55;15.50;;;;;;;12.70;100.00;135712.13;5057100;28;20078;-67
2024/02/13 09:46:03;;;;;;;31.08;15.15;;;;;;;12.38;100.00;135660.13;5059544;28;20029;-68
2024/02/13 09:48:33;;;;;;;25.98;12.95;;;;;;;12.57;100.00;135659.44;5060673;28;20039;-68
2024/02/13 09:51:07;;;;;;;21.73;11.50;;;;;;;11.88;100.00;135662.13;5062319;28;20096;-69
2024/02/13 09:53:40;;;;;;;18.60;10.77;;;;;;;12.41;100.00;135755.63;5057418;28;20040;-71
2024/02/13 09:56:06;;;;;;;18.92;11.52;;;;;;;12.41;100.00;135796.84;5058713;28;20047;-67
2024/02/13 09:58:32;;;;;;;21.67;11.02;;;;;;;12.66;100.00;135804.69;5058222;28;20122;-67
2024/02/13 10:00:58;;;;;;;22.38;11.65;;;;;;;12.32;100.00;135767.53;5058914;28;20575;-67
2024/02/13 10:03:24;;;;;;;27.13;12.18;;;;;;;12.56;100.00;135798.84;5059808;28;20036;-68
2024/02/13 10:05:49;;;;;;;19.42;10.68;;;;;;;11.95;100.00;135689.75;5057537;28;20125;-67
2024/02/13 10:08:17;;;;;;;24.05;11.30;;;;;;;12.25;100.00;135620.28;5057402;28;20033;-67
2024/02/13 10:10:44;;;;;;;22.60;11.70;;;;;;;12.44;100.00;135762.44;5056562;28;20066;-67
2024/02/13 10:13:12;;;;;;;23.35;11.23;;;;;;;12.26;100.00;135738.47;5061233;28;20107;-67
2024/02/13 10:15:45;;;;;;;21.33;11.98;;;;;;;12.20;100.00;135710.53;5058335;28;20181;-67
2024/02/13 10:18:13;;;;;;;23.42;12.10;;;;;;;11.71;100.00;135576.06;5059042;28;20028;-68
2024/02/13 10:20:43;;;;;;;23.08;11.55;;;;;;;12.52;100.00;135722.81;5056363;28;20029;-69
2024/02/13 10:23:12;;;;;;;20.02;10.77;;;;;;;11.66;100.00;135500.41;4707020;28;10000524;-70
2024/02/13 10:25:39;;;;;;;21.15;12.48;;;;;;;12.17;100.00;135645.63;5055839;28;20037;-70
2024/02/13 10:28:06;;;;;;;21.17;11.50;;;;;;;12.16;100.00;135481.13;5056455;28;20055;-71
2024/02/13 10:30:32;;;;;;;22.20;11.40;;;;;;;12.38;100.00;135644.69;5059358;28;20021;-74
2024/02/13 10:33:06;;;;;;;24.23;13.55;;;;;;;12.00;100.00;135582.72;5054334;28;20036;-70
2024/02/13 10:35:32;;;;;;;27.55;15.35;;;;;;;11.28;100.00;135387.03;5050904;28;20029;-68
2024/02/13 10:37:58;;;;;;;22.60;11.57;;;;;;;11.56;100.00;135393.97;5054086;28;20403;-69
2024/02/13 10:40:27;;;;;;;23.17;11.32;;;;;;;11.80;100.00;135516.75;5053914;28;20039;-69
2024/02/13 10:42:55;;;;;;;26.55;11.77;;;;;;;12.25;100.00;135558.50;5060827;28;20089;-71
2024/02/13 10:45:30;;;;;;;24.05;13.07;;;;;;;12.27;100.00;135635.13;5052952;28;20078;-69
2024/02/13 10:48:30;;;;;;;20.48;13.07;;;;;;;12.25;100.00;135676.94;5051010;28;20057;-69
2024/02/13 10:50:58;;;;;;;23.33;11.07;;;;;;;12.64;100.00;135733.16;5051329;28;20028;-69
2024/02/13 10:53:25;;;;;;;19.38;12.38;;;;;;;11.87;100.00;135483.72;5058615;28;20062;-69
2024/02/13 10:55:54;;;;;;;22.25;13.13;;;;;;;12.32;100.00;135602.72;5058996;28;20032;-69
2024/02/13 10:58:22;;;;;;;24.95;11.48;;;;;;;11.95;100.00;135517.31;5057062;28;20052;-68
2024/02/13 11:00:50;;;;;;;15.40;10.50;;;;;;;12.44;100.00;135586.19;5056175;28;20052;-69
2024/02/13 11:03:17;;;;;;;14.68;10.32;;;;;;;11.97;100.00;135476.66;5058751;28;20121;-68
2024/02/13 11:05:42;;;;;;;18.02;10.90;;;;;;;11.40;100.00;135198.28;5054857;28;20083;-69
2024/02/13 11:08:08;;;;;;;16.38;11.23;;;;;;;12.30;100.00;135435.97;5056089;28;20046;-69